Time;durP1;ratioP1;P1;durP2;ratioP2;P2;SDS_P1;SDS_P2;PMS_P1;PMS_P2;Temp;Humidity;BMP_temperature;BMP_pressure;BME280_temperature;BME280_humidity;BME280_pressure;Samples;Min_cycle;Max_cycle;Signal;HPM_P1;HPM_P2
2022/09/08 00:00:45;;;;;;;2.55;1.20;;;;;24.80;100735.00;;;;5081751;28;20198;-80
2022/09/08 00:03:16;;;;;;;2.58;1.50;;;;;24.80;100736.00;;;;5082308;28;20259;-80
2022/09/08 00:05:48;;;;;;;3.28;1.50;;;;;24.80;100739.00;;;;5081948;28;20582;-80
2022/09/08 00:08:20;;;;;;;2.60;1.10;;;;;24.80;100726.00;;;;5081562;28;20210;-80
2022/09/08 00:10:50;;;;;;;4.82;1.75;;;;;24.80;100729.00;;;;5082067;28;20304;-79
2022/09/08 00:13:17;;;;;;;2.83;1.20;;;;;24.80;100737.00;;;;5081537;28;20198;-80
2022/09/08 00:15:45;;;;;;;2.30;1.45;;;;;24.80;100736.00;;;;5081574;28;20203;-80
2022/09/08 00:18:14;;;;;;;2.38;1.40;;;;;24.80;100735.00;;;;5082224;28;21204;-80
2022/09/08 00:20:42;;;;;;;1.92;1.00;;;;;24.80;100737.00;;;;5081204;28;20217;-80
2022/09/08 00:23:09;;;;;;;3.72;1.15;;;;;24.80;100749.00;;;;5083678;28;20194;-77
2022/09/08 00:25:37;;;;;;;4.38;1.40;;;;;24.80;100727.00;;;;5081291;28;20214;-77
2022/09/08 00:28:04;;;;;;;2.20;1.48;;;;;24.80;100730.00;;;;5083982;28;20219;-77
2022/09/08 00:30:31;;;;;;;2.72;1.90;;;;;24.80;100725.00;;;;5081829;28;20229;-77
2022/09/08 00:32:59;;;;;;;4.45;1.90;;;;;24.80;100730.00;;;;5081536;28;20811;-77
2022/09/08 00:35:27;;;;;;;2.50;1.40;;;;;24.80;100722.00;;;;5080944;28;20195;-77
2022/09/08 00:37:55;;;;;;;3.17;1.55;;;;;24.90;100727.00;;;;5083362;28;20210;-77
2022/09/08 00:40:23;;;;;;;2.28;1.70;;;;;24.90;100723.00;;;;5086780;28;20191;-78
2022/09/08 00:43:00;;;;;;;5.47;1.77;;;;;24.80;100731.00;;;;5086733;28;21042;-77
2022/09/08 00:45:34;;;;;;;2.05;1.85;;;;;24.90;100722.00;;;;5079863;28;20232;-78
2022/09/08 00:48:05;;;;;;;4.40;2.15;;;;;24.80;100723.00;;;;5081494;28;20887;-77
2022/09/08 00:50:34;;;;;;;1.83;1.73;;;;;24.80;100714.00;;;;5080668;28;20579;-77
2022/09/08 00:53:08;;;;;;;3.55;2.10;;;;;24.80;100710.00;;;;5080837;28;20282;-77
2022/09/08 00:55:37;;;;;;;3.13;1.73;;;;;24.90;100713.00;;;;5080917;28;20195;-77
2022/09/08 00:58:05;;;;;;;3.75;2.70;;;;;24.90;100716.00;;;;5082365;28;20201;-77
2022/09/08 01:00:35;;;;;;;3.92;2.05;;;;;24.80;100724.00;;;;5086959;28;20202;-77
2022/09/08 01:03:03;;;;;;;3.63;2.28;;;;;24.80;100725.00;;;;5083072;28;20202;-78
2022/09/08 01:05:38;;;;;;;4.03;1.98;;;;;24.80;100723.00;;;;5087461;28;20237;-77
2022/09/08 01:13:49;;;;;;;2.53;2.00;;;;;24.80;100720.00;;;;5086622;28;20209;-77
2022/09/08 01:16:17;;;;;;;4.35;2.78;;;;;24.80;100712.00;;;;5087583;28;20676;-77
2022/09/08 01:18:44;;;;;;;2.65;2.28;;;;;24.90;100716.00;;;;5082793;28;20206;-77
2022/09/08 01:21:25;;;;;;;4.90;2.40;;;;;24.80;100707.00;;;;5081806;28;20194;-77
2022/09/08 01:24:28;;;;;;;3.33;2.10;;;;;24.70;100707.00;;;;5080286;28;20194;-78
2022/09/08 01:27:21;;;;;;;4.72;2.75;;;;;24.80;100707.00;;;;5080855;28;20221;-78
2022/09/08 01:29:50;;;;;;;4.68;2.20;;;;;24.90;100708.00;;;;5078094;28;20353;-78
2022/09/08 01:32:18;;;;;;;4.68;2.53;;;;;24.90;100713.00;;;;5080270;28;20221;-77
2022/09/08 01:34:46;;;;;;;3.35;2.20;;;;;24.90;100721.00;;;;5079845;28;20218;-78
2022/09/08 01:37:14;;;;;;;3.75;2.58;;;;;24.90;100719.00;;;;5080771;28;20201;-77
2022/09/08 01:39:41;;;;;;;8.52;2.85;;;;;24.90;100727.00;;;;5079897;28;20244;-78
2022/09/08 01:42:09;;;;;;;3.08;2.22;;;;;24.90;100733.00;;;;5079716;28;20734;-78
2022/09/08 01:44:37;;;;;;;3.97;2.20;;;;;24.80;100721.00;;;;5081865;28;20206;-77
2022/09/08 01:47:05;;;;;;;3.08;2.05;;;;;24.80;100727.00;;;;5079692;28;20222;-78
2022/09/08 01:49:32;;;;;;;4.53;2.10;;;;;24.80;100728.00;;;;5080134;28;20202;-78
2022/09/08 01:51:59;;;;;;;4.85;2.05;;;;;24.80;100718.00;;;;5080124;28;20199;-78
2022/09/08 01:54:27;;;;;;;7.45;2.42;;;;;24.70;100722.00;;;;5079484;28;20481;-78
2022/09/08 01:56:55;;;;;;;4.45;2.25;;;;;24.70;100715.00;;;;5080617;28;20668;-78
2022/09/08 01:59:22;;;;;;;3.30;1.98;;;;;24.70;100710.00;;;;5080126;28;20198;-78
2022/09/08 02:01:51;;;;;;;2.97;2.10;;;;;24.70;100699.00;;;;5080401;28;20209;-78
2022/09/08 02:04:19;;;;;;;4.25;1.75;;;;;24.60;100693.00;;;;5079125;28;20580;-78
2022/09/08 02:06:46;;;;;;;4.05;1.88;;;;;24.60;100695.00;;;;5084269;28;20878;-80
2022/09/08 02:09:14;;;;;;;2.90;1.77;;;;;24.60;100693.00;;;;5082372;28;20282;-80
2022/09/08 02:11:41;;;;;;;3.92;1.95;;;;;24.60;100688.00;;;;5086256;28;20201;-80
2022/09/08 02:14:08;;;;;;;3.47;1.73;;;;;24.60;100686.00;;;;5085664;28;20205;-80
2022/09/08 02:16:36;;;;;;;4.15;2.03;;;;;24.60;100680.00;;;;5100996;28;20201;-81
2022/09/08 02:19:04;;;;;;;4.53;1.77;;;;;24.50;100677.00;;;;5094677;28;20660;-80
2022/09/08 02:21:32;;;;;;;3.97;2.03;;;;;24.50;100674.00;;;;5085507;28;20194;-80
2022/09/08 02:23:59;;;;;;;7.78;2.20;;;;;24.50;100674.00;;;;5086833;28;20194;-80
2022/09/08 02:26:30;;;;;;;3.72;1.88;;;;;24.50;100668.00;;;;5088648;28;20214;-80
2022/09/08 02:28:58;;;;;;;2.70;1.55;;;;;24.50;100656.00;;;;5084703;28;20301;-78
2022/09/08 02:31:27;;;;;;;4.05;1.75;;;;;24.50;100655.00;;;;5087013;28;20229;-79
2022/09/08 02:33:55;;;;;;;6.57;2.05;;;;;24.40;100660.00;;;;5086448;28;20198;-78
2022/09/08 02:36:24;;;;;;;3.38;1.50;;;;;24.40;100655.00;;;;5086170;28;20198;-78
2022/09/08 02:38:53;;;;;;;8.10;2.08;;;;;24.40;100655.00;;;;5086118;28;20807;-78
2022/09/08 02:41:20;;;;;;;3.15;1.30;;;;;24.40;100665.00;;;;5087372;28;20282;-78
2022/09/08 02:43:48;;;;;;;2.97;1.77;;;;;24.40;100659.00;;;;5084679;28;20214;-78
2022/09/08 02:46:15;;;;;;;5.90;1.77;;;;;24.30;100661.00;;;;5088386;28;20218;-80
2022/09/08 02:48:43;;;;;;;3.67;1.58;;;;;24.30;100661.00;;;;5086765;28;20218;-78
2022/09/08 02:51:17;;;;;;;4.07;2.13;;;;;24.30;100664.00;;;;5087397;28;20195;-78
2022/09/08 02:53:48;;;;;;;2.45;1.92;;;;;24.30;100655.00;;;;5085254;28;20252;-78
2022/09/08 02:56:16;;;;;;;3.42;1.77;;;;;24.30;100642.00;;;;5088519;28;20194;-78
2022/09/08 02:58:43;;;;;;;2.63;1.63;;;;;24.30;100636.00;;;;5085865;28;20201;-78
2022/09/08 03:01:10;;;;;;;5.95;1.83;;;;;24.30;100644.00;;;;5086122;28;20198;-78
2022/09/08 03:03:38;;;;;;;3.20;1.98;;;;;24.30;100640.00;;;;5084555;28;20190;-78
2022/09/08 03:06:06;;;;;;;4.10;2.05;;;;;24.20;100637.00;;;;5082435;28;20229;-78
2022/09/08 03:08:34;;;;;;;2.45;1.77;;;;;24.20;100625.00;;;;5079193;28;20194;-77
2022/09/08 03:11:03;;;;;;;2.30;1.60;;;;;24.20;100623.00;;;;5079449;28;20630;-78
2022/09/08 03:13:31;;;;;;;4.22;2.30;;;;;24.20;100615.00;;;;5078450;28;20198;-78
2022/09/08 03:15:58;;;;;;;3.13;1.88;;;;;24.20;100623.00;;;;5078609;28;20198;-78
2022/09/08 03:18:26;;;;;;;3.65;2.40;;;;;24.20;100620.00;;;;5078166;28;20222;-78
2022/09/08 03:21:00;;;;;;;3.05;1.65;;;;;24.10;100614.00;;;;5078359;28;20198;-78
2022/09/08 03:23:28;;;;;;;2.30;1.80;;;;;24.20;100606.00;;;;5079385;28;20202;-78
2022/09/08 03:25:56;;;;;;;4.07;2.20;;;;;24.20;100602.00;;;;5076386;28;20690;-77
2022/09/08 03:28:25;;;;;;;2.30;1.67;;;;;24.10;100582.00;;;;5080788;28;20218;-78
2022/09/08 03:30:53;;;;;;;2.83;1.83;;;;;24.10;100577.00;;;;5076428;28;20221;-77
2022/09/08 03:33:20;;;;;;;3.17;1.88;;;;;24.10;100577.00;;;;5082379;28;21022;-77
2022/09/08 03:35:49;;;;;;;2.63;1.70;;;;;24.10;100575.00;;;;5085365;28;20202;-80
2022/09/08 03:38:17;;;;;;;3.28;2.03;;;;;24.10;100576.00;;;;5079553;28;20205;-80
2022/09/08 03:40:45;;;;;;;4.55;2.05;;;;;24.10;100580.00;;;;5077496;28;20229;-79
2022/09/08 03:43:12;;;;;;;2.55;1.70;;;;;24.10;100587.00;;;;5078509;28;20201;-78
2022/09/08 03:45:44;;;;;;;2.90;1.95;;;;;24.00;100590.00;;;;5077511;28;20197;-78
2022/09/08 03:48:12;;;;;;;3.72;1.85;;;;;24.00;100594.00;;;;5079591;28;20710;-78
2022/09/08 03:50:40;;;;;;;2.67;1.90;;;;;24.00;100612.00;;;;5078995;28;20206;-79
2022/09/08 03:53:07;;;;;;;3.58;1.88;;;;;24.00;100618.00;;;;5077379;28;21300;-78
2022/09/08 03:55:35;;;;;;;2.15;1.80;;;;;24.00;100609.00;;;;5077999;28;20655;-78
2022/09/08 03:58:02;;;;;;;3.38;2.35;;;;;24.00;100612.00;;;;5084331;28;20202;-79
2022/09/08 04:00:30;;;;;;;3.03;2.00;;;;;23.90;100621.00;;;;5085695;28;20202;-78
2022/09/08 04:02:58;;;;;;;2.42;1.75;;;;;23.90;100641.00;;;;5086016;28;20194;-78
2022/09/08 04:05:26;;;;;;;3.05;2.33;;;;;23.90;100639.00;;;;5080316;28;20199;-78
2022/09/08 04:07:54;;;;;;;5.13;2.30;;;;;23.90;100632.00;;;;5083292;28;20222;-78
2022/09/08 04:10:21;;;;;;;3.20;2.22;;;;;23.90;100646.00;;;;5086795;28;20237;-78
2022/09/08 04:12:49;;;;;;;2.80;2.15;;;;;23.90;100645.00;;;;5084323;28;20199;-79
2022/09/08 04:15:17;;;;;;;3.85;1.98;;;;;23.90;100633.00;;;;5081697;28;20729;-79
2022/09/08 04:17:44;;;;;;;2.58;1.98;;;;;23.90;100628.00;;;;5078900;28;20214;-79
2022/09/08 04:20:16;;;;;;;2.72;2.08;;;;;23.80;100629.00;;;;5081294;28;20652;-79
2022/09/08 04:22:44;;;;;;;2.45;2.03;;;;;23.80;100644.00;;;;5083358;28;20194;-79
2022/09/08 04:25:11;;;;;;;4.22;2.13;;;;;23.80;100665.00;;;;5081797;28;20195;-78
2022/09/08 04:27:39;;;;;;;5.00;1.92;;;;;23.80;100645.00;;;;5083780;28;20226;-78
2022/09/08 04:30:07;;;;;;;3.13;1.77;;;;;23.80;100611.00;;;;5081218;28;20234;-78
2022/09/08 04:32:37;;;;;;;3.85;1.90;;;;;23.70;100611.00;;;;5079734;28;20307;-78
2022/09/08 04:35:05;;;;;;;3.75;1.75;;;;;23.70;100611.00;;;;5081974;28;20274;-78
2022/09/08 04:37:34;;;;;;;2.83;1.85;;;;;23.70;100616.00;;;;5080937;28;20583;-78
2022/09/08 04:40:03;;;;;;;2.45;1.65;;;;;23.70;100620.00;;;;5082598;28;20249;-78
2022/09/08 04:42:30;;;;;;;3.65;1.77;;;;;23.60;100606.00;;;;5082419;28;20198;-78
2022/09/08 04:44:57;;;;;;;6.15;2.15;;;;;23.60;100615.00;;;;5081335;28;20578;-78
2022/09/08 04:47:25;;;;;;;4.72;1.48;;;;;23.60;100620.00;;;;5080975;28;20233;-78
2022/09/08 04:49:53;;;;;;;3.22;1.42;;;;;23.60;100619.00;;;;5089407;28;20198;-78
2022/09/08 04:52:24;;;;;;;5.93;1.67;;;;;23.60;100618.00;;;;5086721;28;20291;-78
2022/09/08 04:54:53;;;;;;;2.85;1.40;;;;;23.60;100611.00;;;;5082807;28;20195;-78
2022/09/08 04:57:20;;;;;;;2.55;1.80;;;;;23.50;100610.00;;;;5088169;28;20201;-79
2022/09/08 04:59:48;;;;;;;2.85;1.52;;;;;23.50;100595.00;;;;5086285;28;20235;-79
2022/09/08 05:02:15;;;;;;;2.50;1.63;;;;;23.50;100597.00;;;;5081639;28;20384;-78
2022/09/08 05:04:42;;;;;;;3.35;1.77;;;;;23.50;100597.00;;;;5085038;28;20647;-78
2022/09/08 05:07:10;;;;;;;3.60;1.95;;;;;23.50;100591.00;;;;5087683;28;20226;-78
2022/09/08 05:09:37;;;;;;;3.05;1.98;;;;;23.50;100600.00;;;;5089161;28;20656;-78
2022/09/08 05:12:06;;;;;;;2.60;1.70;;;;;23.50;100607.00;;;;5088429;28;20229;-77
2022/09/08 05:14:34;;;;;;;3.92;1.73;;;;;23.50;100602.00;;;;5087546;28;20194;-77
2022/09/08 05:17:01;;;;;;;4.70;2.45;;;;;23.40;100607.00;;;;5083915;28;20452;-78
2022/09/08 05:19:28;;;;;;;3.50;1.85;;;;;23.50;100617.00;;;;5088265;28;20198;-77
2022/09/08 05:21:56;;;;;;;3.15;1.70;;;;;23.50;100621.00;;;;5083978;28;20201;-78
2022/09/08 05:24:23;;;;;;;2.97;1.60;;;;;23.50;100627.00;;;;5085836;28;20592;-78
2022/09/08 05:26:50;;;;;;;4.68;1.90;;;;;23.50;100625.00;;;;5086104;28;20222;-78
2022/09/08 05:29:19;;;;;;;2.53;1.70;;;;;23.50;100628.00;;;;5083187;28;20731;-78
2022/09/08 05:31:46;;;;;;;3.33;1.75;;;;;23.50;100627.00;;;;5087172;28;20809;-79
2022/09/08 05:34:14;;;;;;;3.40;2.03;;;;;23.50;100625.00;;;;5077908;28;20197;-79
2022/09/08 05:36:41;;;;;;;2.47;1.70;;;;;23.50;100632.00;;;;5086145;28;20212;-78
2022/09/08 05:39:10;;;;;;;7.22;2.33;;;;;23.40;100624.00;;;;5077033;28;20206;-79
2022/09/08 05:41:37;;;;;;;2.78;1.73;;;;;23.40;100629.00;;;;5089090;28;20194;-79
2022/09/08 05:44:05;;;;;;;3.50;2.00;;;;;23.40;100627.00;;;;5088962;28;20187;-78
2022/09/08 05:46:34;;;;;;;3.90;1.77;;;;;23.40;100632.00;;;;5084291;28;20285;-79
2022/09/08 05:49:03;;;;;;;4.88;1.80;;;;;23.40;100629.00;;;;5088694;28;20226;-81
2022/09/08 05:51:32;;;;;;;2.17;1.90;;;;;23.40;100627.00;;;;5088643;28;20192;-78
2022/09/08 05:54:00;;;;;;;2.92;1.95;;;;;23.30;100637.00;;;;5085477;28;20277;-77
2022/09/08 05:56:28;;;;;;;4.30;2.17;;;;;23.30;100633.00;;;;5086416;28;20194;-77
2022/09/08 05:58:57;;;;;;;4.20;2.55;;;;;23.30;100632.00;;;;5090414;28;20201;-77
2022/09/08 06:01:25;;;;;;;2.10;1.75;;;;;23.30;100635.00;;;;5087324;28;20198;-77
2022/09/08 06:03:54;;;;;;;3.65;2.88;;;;;23.30;100638.00;;;;5084452;28;20190;-79
2022/09/08 06:06:22;;;;;;;4.22;2.30;;;;;23.30;100634.00;;;;5088232;28;20198;-78
2022/09/08 06:08:49;;;;;;;4.20;2.25;;;;;23.30;100624.00;;;;5088630;28;20218;-77
2022/09/08 06:11:16;;;;;;;3.17;2.50;;;;;23.30;100638.00;;;;5085327;28;20230;-78
2022/09/08 06:13:44;;;;;;;2.75;1.95;;;;;23.30;100636.00;;;;5088762;28;20843;-78
2022/09/08 06:16:12;;;;;;;2.60;1.95;;;;;23.30;100640.00;;;;5088890;28;20206;-78
2022/09/08 06:18:42;;;;;;;4.82;1.92;;;;;23.30;100636.00;;;;5088489;28;20702;-78
2022/09/08 06:21:12;;;;;;;2.42;2.22;;;;;23.30;100642.00;;;;5087611;28;20553;-78
2022/09/08 06:23:40;;;;;;;4.40;2.05;;;;;23.30;100638.00;;;;5088516;28;20194;-78
2022/09/08 06:26:39;;;;;;;3.78;2.47;;;;;23.20;100638.00;;;;5071097;28;20203;-80
2022/09/08 06:29:11;;;;;;;3.78;2.53;;;;;23.20;100646.00;;;;5078098;28;20226;-79
2022/09/08 06:31:44;;;;;;;3.47;2.28;;;;;23.20;100646.00;;;;5088372;28;20190;-80
2022/09/08 06:34:16;;;;;;;2.90;2.50;;;;;23.20;100647.00;;;;5088595;28;20207;-79
2022/09/08 06:36:49;;;;;;;3.75;2.38;;;;;23.20;100643.00;;;;5079574;28;20190;-80
2022/09/08 06:39:20;;;;;;;3.20;2.33;;;;;23.20;100644.00;;;;5088113;28;20206;-80
2022/09/08 06:41:50;;;;;;;3.28;2.70;;;;;23.20;100640.00;;;;5087688;28;20209;-77
2022/09/08 06:44:22;;;;;;;3.53;2.33;;;;;23.20;100634.00;;;;5088360;28;20210;-78
2022/09/08 06:46:50;;;;;;;3.00;2.15;;;;;23.20;100644.00;;;;5082449;28;20195;-79
2022/09/08 06:49:17;;;;;;;5.40;2.65;;;;;23.30;100639.00;;;;5086861;28;20300;-78
2022/09/08 06:51:55;;;;;;;2.90;2.38;;;;;23.20;100649.00;;;;5087413;28;20198;-78
2022/09/08 06:54:32;;;;;;;5.72;2.83;;;;;23.20;100641.00;;;;5082752;28;20205;-78
2022/09/08 06:57:08;;;;;;;3.22;2.42;;;;;23.20;100644.00;;;;5084965;28;20197;-78
2022/09/08 06:59:48;;;;;;;5.03;2.63;;;;;23.20;100647.00;;;;5085466;28;20205;-78
2022/09/08 07:02:40;;;;;;;3.75;2.20;;;;;23.20;100648.00;;;;5080182;28;20225;-78
2022/09/08 07:05:24;;;;;;;4.70;2.50;;;;;23.20;100641.00;;;;5088409;28;20198;-79
2022/09/08 07:08:00;;;;;;;3.33;2.40;;;;;23.30;100643.00;;;;5087884;28;20222;-79
2022/09/08 07:10:33;;;;;;;3.60;3.00;;;;;23.30;100635.00;;;;5087904;28;20198;-80
2022/09/08 07:13:10;;;;;;;4.72;2.90;;;;;23.30;100646.00;;;;5086001;28;20186;-80
2022/09/08 07:15:59;;;;;;;4.85;2.90;;;;;23.20;100641.00;;;;5078963;28;20198;-79
2022/09/08 07:18:31;;;;;;;2.40;2.20;;;;;23.30;100636.00;;;;5086934;28;20664;-80
2022/09/08 07:21:12;;;;;;;5.25;3.15;;;;;23.30;100627.00;;;;5086345;28;20669;-79
2022/09/08 07:23:41;;;;;;;4.57;2.92;;;;;23.40;100634.00;;;;5087196;28;20201;-80
2022/09/08 07:26:13;;;;;;;5.65;3.60;;;;;23.40;100629.00;;;;5079535;28;20203;-79
2022/09/08 07:28:45;;;;;;;3.42;2.88;;;;;23.40;100629.00;;;;5068607;28;20230;-79
2022/09/08 07:31:19;;;;;;;3.08;2.58;;;;;23.40;100638.00;;;;5086282;28;20218;-79
2022/09/08 07:33:50;;;;;;;3.58;2.83;;;;;23.40;100644.00;;;;5086412;28;20314;-80
2022/09/08 07:36:25;;;;;;;3.88;3.05;;;;;23.40;100647.00;;;;5087538;28;20660;-80
2022/09/08 07:38:55;;;;;;;5.05;3.55;;;;;23.40;100642.00;;;;5087938;28;20289;-80
2022/09/08 07:41:28;;;;;;;3.80;2.85;;;;;23.50;100638.00;;;;5086687;28;20198;-80
2022/09/08 07:43:59;;;;;;;5.72;3.95;;;;;23.50;100645.00;;;;5086355;28;20198;-80
2022/09/08 07:46:40;;;;;;;3.85;3.45;;;;;23.50;100638.00;;;;5086040;28;20194;-80
2022/09/08 07:49:14;;;;;;;3.72;2.97;;;;;23.50;100631.00;;;;5077267;28;20226;-80
2022/09/08 07:51:55;;;;;;;3.47;3.00;;;;;23.50;100631.00;;;;5084806;28;20205;-80
2022/09/08 07:54:48;;;;;;;4.85;3.03;;;;;23.50;100629.00;;;;5087339;28;20198;-79
2022/09/08 07:57:20;;;;;;;3.90;3.08;;;;;23.60;100638.00;;;;5079535;28;20702;-80
2022/09/08 07:59:56;;;;;;;4.32;2.97;;;;;23.50;100642.00;;;;5090960;28;20201;-80
2022/09/08 08:02:57;;;;;;;3.42;3.05;;;;;23.50;100644.00;;;;5090198;28;20194;-79
2022/09/08 08:05:30;;;;;;;3.65;3.15;;;;;23.60;100647.00;;;;5088906;28;20194;-79
2022/09/08 08:08:09;;;;;;;5.10;3.55;;;;;23.50;100639.00;;;;5090833;28;20225;-80
2022/09/08 08:10:42;;;;;;;4.68;4.07;;;;;23.60;100641.00;;;;5090374;28;20202;-80
2022/09/08 08:13:22;;;;;;;3.95;3.22;;;;;23.50;100654.00;;;;5091179;28;20702;-79
2022/09/08 08:16:00;;;;;;;7.10;3.92;;;;;23.60;100654.00;;;;5089895;28;20197;-80
2022/09/08 08:18:37;;;;;;;7.18;3.95;;;;;23.60;100658.00;;;;5089483;28;20202;-79
2022/09/08 08:21:13;;;;;;;4.10;3.72;;;;;23.70;100659.00;;;;5089909;28;20201;-80
2022/09/08 08:24:02;;;;;;;5.68;4.18;;;;;23.60;100656.00;;;;5091415;28;20225;-80
2022/09/08 08:26:37;;;;;;;4.90;3.60;;;;;23.70;100663.00;;;;5090228;28;20194;-80
2022/09/08 08:29:25;;;;;;;3.97;3.40;;;;;23.70;100662.00;;;;5088602;28;20225;-80
2022/09/08 08:31:57;;;;;;;6.40;3.90;;;;;23.70;100669.00;;;;5083059;28;20198;-80
2022/09/08 08:34:27;;;;;;;5.20;3.97;;;;;23.80;100666.00;;;;5090919;28;20575;-80
2022/09/08 08:37:01;;;;;;;4.75;3.75;;;;;23.80;100664.00;;;;5089519;28;20205;-80
2022/09/08 08:39:29;;;;;;;4.57;3.88;;;;;23.90;100672.00;;;;5090412;28;20198;-80
2022/09/08 08:42:29;;;;;;;4.47;3.47;;;;;23.90;100670.00;;;;5090334;28;20251;-81
2022/09/08 08:45:11;;;;;;;5.30;3.90;;;;;24.00;100665.00;;;;5090215;28;20205;-80
2022/09/08 08:48:01;;;;;;;4.57;3.88;;;;;24.00;100674.00;;;;5090268;28;20202;-81
2022/09/08 08:51:01;;;;;;;7.80;4.80;;;;;24.00;100672.00;;;;5079926;28;20199;-80
2022/09/08 08:53:53;;;;;;;7.90;5.10;;;;;24.00;100671.00;;;;5090241;28;20292;-80
2022/09/08 08:56:28;;;;;;;6.90;5.85;;;;;24.10;100679.00;;;;5089651;28;20203;-81
2022/09/08 08:59:35;;;;;;;7.75;5.82;;;;;24.10;100681.00;;;;5082231;28;20222;-81
2022/09/08 09:02:16;;;;;;;7.57;6.43;;;;;24.10;100685.00;;;;5079183;28;20289;-81
2022/09/08 09:05:22;;;;;;;6.75;6.15;;;;;24.10;100676.00;;;;5089865;28;20206;-81
2022/09/08 09:08:09;;;;;;;6.53;5.90;;;;;24.20;100675.00;;;;5089796;28;20251;-81
2022/09/08 09:10:49;;;;;;;5.55;4.93;;;;;24.20;100679.00;;;;5089585;28;20193;-80
2022/09/08 09:13:34;;;;;;;4.50;4.10;;;;;24.20;100673.00;;;;5089583;28;20195;-81
2022/09/08 09:16:33;;;;;;;4.75;4.28;;;;;24.20;100678.00;;;;5079482;28;20194;-81
2022/09/08 09:19:30;;;;;;;4.32;3.92;;;;;24.20;100669.00;;;;5089723;28;20195;-81
2022/09/08 09:22:07;;;;;;;4.63;3.92;;;;;24.40;100670.00;;;;5075757;28;20201;-82
2022/09/08 09:24:42;;;;;;;4.18;3.78;;;;;24.50;100659.00;;;;5089588;28;20255;-83
2022/09/08 09:27:18;;;;;;;5.30;3.70;;;;;24.60;100665.00;;;;5089513;28;20186;-83
2022/09/08 09:29:51;;;;;;;6.00;3.08;;;;;24.70;100662.00;;;;5089685;28;20374;-83
2022/09/08 09:32:51;;;;;;;2.55;2.35;;;;;24.80;100658.00;;;;5089239;28;20606;-82
2022/09/08 09:35:39;;;;;;;2.35;2.03;;;;;24.90;100661.00;;;;5088394;28;20206;-82
2022/09/08 09:38:41;;;;;;;2.20;1.80;;;;;24.90;100657.00;;;;5069638;28;20230;-83
2022/09/08 09:41:47;;;;;;;2.70;1.98;;;;;25.00;100661.00;;;;5069938;28;20680;-82
2022/09/08 09:44:40;;;;;;;3.60;1.58;;;;;25.00;100662.00;;;;5053921;28;20202;-83
2022/09/08 09:47:48;;;;;;;1.80;1.27;;;;;25.10;100657.00;;;;5087849;28;20228;-82
2022/09/08 09:50:46;;;;;;;2.05;1.20;;;;;25.10;100657.00;;;;5050547;28;20921;-82
2022/09/08 09:53:34;;;;;;;1.95;1.30;;;;;25.20;100652.00;;;;5088241;28;20201;-82
2022/09/08 09:56:44;;;;;;;3.85;1.20;;;;;25.20;100649.00;;;;5081905;28;20669;-83
2022/09/08 10:00:06;;;;;;;1.27;1.13;;;;;25.30;100647.00;;;;5064874;28;20198;-84
2022/09/08 10:03:00;;;;;;;2.58;1.30;;;;;25.40;100643.00;;;;5068820;28;20206;-82
2022/09/08 10:06:02;;;;;;;1.60;1.15;;;;;25.40;100652.00;;;;5083030;28;20217;-83
2022/09/08 10:08:55;;;;;;;4.20;1.52;;;;;25.50;100646.00;;;;5088584;28;20224;-83
2022/09/08 10:11:55;;;;;;;2.75;1.48;;;;;25.60;100648.00;;;;5088912;28;20229;-83
2022/09/08 10:14:53;;;;;;;3.50;1.95;;;;;25.60;100650.00;;;;5089106;28;20202;-82
2022/09/08 10:17:52;;;;;;;3.50;2.47;;;;;25.60;100655.00;;;;5087225;28;20264;-83
2022/09/08 10:20:45;;;;;;;4.90;3.08;;;;;25.70;100661.00;;;;5084746;28;21035;-83
2022/09/08 10:23:58;;;;;;;3.42;3.13;;;;;25.70;100655.00;;;;5086529;28;20328;-82
2022/09/08 10:26:52;;;;;;;3.17;2.83;;;;;25.70;100654.00;;;;5079431;28;20198;-83
2022/09/08 10:30:04;;;;;;;3.78;2.90;;;;;25.70;100654.00;;;;5086796;28;20221;-83
2022/09/08 10:33:11;;;;;;;4.15;2.67;;;;;25.70;100655.00;;;;5049669;28;20210;-83
2022/09/08 10:35:44;;;;;;;5.40;3.45;;;;;25.80;100649.00;;;;5086572;28;20201;-82
2022/09/08 10:38:46;;;;;;;3.35;2.38;;;;;25.80;100655.00;;;;5087643;28;20202;-83
2022/09/08 10:42:03;;;;;;;3.47;2.80;;;;;25.80;100647.00;;;;5088008;28;20403;-82
2022/09/08 10:44:50;;;;;;;2.95;2.50;;;;;25.80;100643.00;;;;5088709;28;20256;-82
2022/09/08 10:47:58;;;;;;;3.13;2.78;;;;;25.80;100644.00;;;;5072749;28;20210;-82
2022/09/08 10:50:28;;;;;;;3.60;2.80;;;;;25.90;100645.00;;;;5075774;28;20229;-82
2022/09/08 10:53:33;;;;;;;5.03;2.80;;;;;25.70;100649.00;;;;5087598;28;20661;-82
2022/09/08 10:56:13;;;;;;;3.28;2.97;;;;;25.70;100656.00;;;;5088118;28;20198;-81
2022/09/08 10:59:13;;;;;;;6.78;3.15;;;;;25.60;100659.00;;;;5088345;28;20284;-82
2022/09/08 11:02:13;;;;;;;3.40;2.80;;;;;25.50;100658.00;;;;5087794;28;20205;-81
2022/09/08 11:05:21;;;;;;;3.35;2.30;;;;;25.40;100652.00;;;;5084512;28;20205;-80
2022/09/08 11:08:27;;;;;;;3.47;2.75;;;;;25.40;100649.00;;;;5087189;28;20198;-80
2022/09/08 11:11:26;;;;;;;3.28;2.55;;;;;25.50;100654.00;;;;5087859;28;20198;-82
2022/09/08 11:14:01;;;;;;;7.28;3.05;;;;;25.60;100652.00;;;;5086724;28;20560;-82
2022/09/08 11:17:11;;;;;;;4.20;3.00;;;;;25.60;100644.00;;;;5088013;28;20198;-81
2022/09/08 11:19:42;;;;;;;3.15;2.45;;;;;25.80;100655.00;;;;5076454;28;20937;-82
2022/09/08 11:22:41;;;;;;;4.32;2.95;;;;;25.80;100656.00;;;;5087531;28;20206;-82
2022/09/08 11:25:31;;;;;;;4.45;2.78;;;;;26.00;100651.00;;;;5064802;28;20202;-82
2022/09/08 11:28:13;;;;;;;3.25;2.60;;;;;26.10;100647.00;;;;5068921;28;20207;-83
2022/09/08 11:30:50;;;;;;;3.20;2.10;;;;;26.20;100655.00;;;;5087760;28;20237;-81
2022/09/08 11:33:33;;;;;;;4.28;2.47;;;;;26.20;100650.00;;;;5091928;28;20194;-82
2022/09/08 11:36:21;;;;;;;3.38;2.00;;;;;26.20;100647.00;;;;5085234;28;20194;-82
2022/09/08 11:39:09;;;;;;;6.90;2.50;;;;;26.30;100655.00;;;;5071928;28;20198;-82
2022/09/08 11:42:17;;;;;;;2.75;1.77;;;;;26.30;100652.00;;;;5091158;28;20201;-82
2022/09/08 11:44:55;;;;;;;4.15;1.95;;;;;26.40;100645.00;;;;5092034;28;20230;-82
2022/09/08 11:47:53;;;;;;;3.88;1.55;;;;;26.40;100644.00;;;;5090424;28;20225;-83
2022/09/08 11:50:32;;;;;;;3.35;1.25;;;;;26.50;100645.00;;;;5084721;28;20261;-84
2022/09/08 11:53:24;;;;;;;5.07;1.77;;;;;26.60;100637.00;;;;5090359;28;20197;-83
2022/09/08 11:56:20;;;;;;;2.58;1.23;;;;;26.60;100637.00;;;;5090507;28;20346;-83
2022/09/08 11:59:07;;;;;;;4.05;1.80;;;;;26.70;100635.00;;;;5071660;28;20300;-82
2022/09/08 12:01:50;;;;;;;1.55;0.98;;;;;26.80;100636.00;;;;5077515;28;20194;-83
2022/09/08 12:04:47;;;;;;;5.28;1.98;;;;;26.90;100635.00;;;;5091680;28;20198;-83
2022/09/08 12:07:39;;;;;;;1.88;0.90;;;;;27.00;100633.00;;;;5088048;28;20206;-83
2022/09/08 12:10:29;;;;;;;2.00;1.10;;;;;27.00;100632.00;;;;5089152;28;20230;-82
2022/09/08 12:13:13;;;;;;;4.03;1.23;;;;;27.00;100625.00;;;;5083920;28;20194;-85
2022/09/08 12:16:18;;;;;;;2.80;1.00;;;;;27.00;100630.00;;;;5091531;28;20205;-83
2022/09/08 12:19:00;;;;;;;2.38;1.20;;;;;27.10;100625.00;;;;5090122;28;20235;-81
2022/09/08 12:21:49;;;;;;;2.88;1.35;;;;;27.10;100614.00;;;;5085819;28;20201;-82
2022/09/08 12:24:29;;;;;;;4.00;1.63;;;;;27.20;100607.00;;;;5090021;28;20199;-83
2022/09/08 12:27:06;;;;;;;3.45;1.40;;;;;27.20;100605.00;;;;5090723;28;20194;-83
2022/09/08 12:30:07;;;;;;;3.45;1.48;;;;;27.20;100605.00;;;;5089909;28;20225;-82
2022/09/08 12:33:05;;;;;;;4.75;1.55;;;;;27.20;100606.00;;;;5084198;28;20597;-83
2022/09/08 12:35:36;;;;;;;3.30;1.25;;;;;27.30;100612.00;;;;5073662;28;20226;-82
2022/09/08 12:38:30;;;;;;;3.70;1.50;;;;;27.30;100595.00;;;;5090677;28;20205;-81
2022/09/08 12:41:13;;;;;;;3.42;1.52;;;;;27.40;100594.00;;;;5087301;28;20220;-82
2022/09/08 12:43:42;;;;;;;2.00;1.33;;;;;27.50;100598.00;;;;5087127;28;20194;-84
2022/09/08 12:46:39;;;;;;;2.05;1.30;;;;;27.50;100604.00;;;;5089631;28;20190;-84
2022/09/08 12:49:38;;;;;;;1.50;1.17;;;;;27.60;100604.00;;;;5083801;28;20658;-83
2022/09/08 12:52:18;;;;;;;4.45;1.52;;;;;27.60;100601.00;;;;5087585;28;20285;-85
2022/09/08 12:54:56;;;;;;;3.25;1.73;;;;;27.70;100597.00;;;;5089608;28;20209;-81
2022/09/08 12:57:47;;;;;;;3.17;1.30;;;;;27.70;100605.00;;;;5089674;28;20190;-81
2022/09/08 13:00:19;;;;;;;5.63;1.73;;;;;27.80;100603.00;;;;5087088;28;20199;-81
2022/09/08 13:03:27;;;;;;;4.20;1.38;;;;;27.70;100610.00;;;;5089190;28;20572;-80